Time;durP1;ratioP1;P1;durP2;ratioP2;P2;SDS_P1;SDS_P2;PMS_P1;PMS_P2;Temp;Humidity;BMP_temperature;BMP_pressure;BME280_temperature;BME280_humidity;BME280_pressure;Samples;Min_cycle;Max_cycle;Signal;HPM_P1;HPM_P2
2021/12/15 00:02:53;;;;;;;60.10;28.40;;;;;;;4.39;79.16;101156.11;126836;1315;108744;-75
2021/12/15 00:05:58;;;;;;;62.60;31.00;;;;;;;4.43;79.18;101157.94;126775;1315;106938;-75
2021/12/15 00:09:07;;;;;;;60.70;29.00;;;;;;;4.46;79.27;101160.91;126581;1315;108936;-74
2021/12/15 00:12:14;;;;;;;59.30;29.10;;;;;;;4.48;79.43;101160.10;126376;1315;108880;-74
2021/12/15 00:15:22;;;;;;;61.10;29.60;;;;;;;4.48;79.51;101156.05;126486;1315;108958;-75
2021/12/15 00:18:28;;;;;;;61.50;28.80;;;;;;;4.46;79.42;101152.48;126430;1314;108920;-76
2021/12/15 00:21:34;;;;;;;53.70;26.90;;;;;;;4.45;79.90;101159.77;126645;1316;108810;-76
2021/12/15 00:24:39;;;;;;;48.90;23.80;;;;;;;4.48;79.71;101166.09;126577;1315;108705;-75
2021/12/15 00:27:45;;;;;;;50.80;25.70;;;;;;;4.53;79.78;101165.99;126612;1316;108847;-77
2021/12/15 00:30:50;;;;;;;55.20;27.70;;;;;;;4.56;79.61;101166.37;126887;1309;108782;-74
2021/12/15 00:33:57;;;;;;;117.00;55.40;;;;;;;4.57;79.82;101163.79;126891;1315;108937;-74
2021/12/15 00:37:03;;;;;;;107.00;40.50;;;;;;;4.54;80.06;101161.67;126871;1309;108877;-75
2021/12/15 00:40:15;;;;;;;81.80;29.50;;;;;;;4.51;80.08;101161.20;126855;1314;108938;-74
2021/12/15 00:43:21;;;;;;;61.00;29.50;;;;;;;4.51;80.16;101157.12;126922;1315;108821;-74
2021/12/15 00:46:29;;;;;;;57.30;25.90;;;;;;;4.51;80.07;101162.94;126597;1310;108754;-76
2021/12/15 00:49:35;;;;;;;59.70;29.00;;;;;;;4.56;80.20;101168.27;126910;1316;108761;-75
2021/12/15 00:52:42;;;;;;;55.60;27.90;;;;;;;4.59;80.10;101170.42;126574;1309;108722;-75
2021/12/15 00:55:50;;;;;;;52.00;25.80;;;;;;;4.58;80.08;101165.19;126852;1309;108929;-78
2021/12/15 00:58:56;;;;;;;50.90;26.60;;;;;;;4.57;80.17;101167.34;126858;1316;108985;-74
2021/12/15 01:02:02;;;;;;;53.20;25.40;;;;;;;4.55;80.17;101172.58;126625;1310;108739;-75
2021/12/15 01:05:12;;;;;;;51.90;24.80;;;;;;;4.54;80.20;101177.04;126545;1312;108746;-76
2021/12/15 01:08:21;;;;;;;50.40;23.60;;;;;;;4.55;80.25;101182.62;126760;1313;108740;-76
2021/12/15 01:11:44;;;;;;;53.90;26.20;;;;;;;4.58;80.39;101184.04;126685;1313;108823;-75
2021/12/15 01:21:44;;;;;;;56.00;26.00;;;;;;;4.51;80.92;101199.41;126398;1310;108727;-75
2021/12/15 01:24:56;;;;;;;49.40;23.50;;;;;;;4.49;80.71;101197.91;126590;1313;109441;-76
2021/12/15 01:28:03;;;;;;;50.10;24.20;;;;;;;4.51;80.78;101196.93;126386;1315;108963;-74
2021/12/15 01:31:12;;;;;;;53.30;27.60;;;;;;;4.52;80.96;101197.74;126353;1309;108939;-75
2021/12/15 01:34:17;;;;;;;52.40;25.90;;;;;;;4.54;81.01;101195.50;126574;1311;108895;-75
2021/12/15 01:37:23;;;;;;;55.80;26.80;;;;;;;4.57;80.90;101195.20;126571;1310;108917;-75
2021/12/15 01:40:34;;;;;;;51.00;26.10;;;;;;;4.56;80.88;101191.89;126478;1315;108797;-75
2021/12/15 01:43:49;;;;;;;54.80;24.90;;;;;;;4.56;80.83;101192.22;126373;1310;109776;-74
2021/12/15 01:46:59;;;;;;;53.10;25.70;;;;;;;4.58;80.72;101195.30;126833;1315;108811;-76
2021/12/15 01:50:07;;;;;;;56.00;26.90;;;;;;;4.60;80.80;101203.26;126811;1314;108993;-76
2021/12/15 01:53:14;;;;;;;60.10;28.30;;;;;;;4.62;80.75;101204.71;126585;1310;108782;-77
2021/12/15 01:56:21;;;;;;;58.80;28.10;;;;;;;4.63;81.06;101203.30;126400;1315;108946;-76
2021/12/15 01:59:29;;;;;;;64.90;28.80;;;;;;;4.58;80.98;101201.47;126326;1310;108903;-77
2021/12/15 02:02:36;;;;;;;59.40;27.40;;;;;;;4.53;80.80;101201.58;126427;1309;107897;-76
2021/12/15 02:05:42;;;;;;;56.70;26.40;;;;;;;4.49;81.05;101201.78;126249;1309;211397;-76
2021/12/15 02:08:48;;;;;;;61.90;26.70;;;;;;;4.49;80.96;101204.98;126474;1309;108918;-77
2021/12/15 02:11:54;;;;;;;58.00;27.80;;;;;;;4.52;81.13;101206.90;126912;1312;108923;-77
2021/12/15 02:15:00;;;;;;;59.50;27.90;;;;;;;4.55;81.17;101208.53;126868;1312;108969;-77
2021/12/15 02:18:08;;;;;;;62.70;28.90;;;;;;;4.57;81.10;101208.54;126704;1316;108849;-76
2021/12/15 02:21:17;;;;;;;63.40;27.00;;;;;;;4.55;81.08;101209.42;126703;1313;108775;-77
2021/12/15 02:24:23;;;;;;;55.20;27.20;;;;;;;4.53;81.21;101216.88;126583;1315;108892;-77
2021/12/15 02:27:34;;;;;;;58.30;27.40;;;;;;;4.53;81.30;101217.77;126858;1309;108791;-75
2021/12/15 02:30:52;;;;;;;60.70;28.80;;;;;;;4.56;81.28;101217.63;126797;1312;108390;-76
2021/12/15 02:34:09;;;;;;;56.60;27.30;;;;;;;4.54;81.71;101223.72;126917;1312;107805;-77
2021/12/15 02:37:19;;;;;;;65.60;30.30;;;;;;;4.50;81.65;101222.55;126952;1309;108276;-76
2021/12/15 02:40:25;;;;;;;62.00;28.50;;;;;;;4.48;81.47;101222.11;126638;1315;108716;-76
2021/12/15 02:43:30;;;;;;;58.50;27.30;;;;;;;4.49;81.41;101219.76;126586;1309;108741;-77
2021/12/15 02:46:37;;;;;;;58.80;26.20;;;;;;;4.52;81.32;101219.45;126723;1309;108887;-79
2021/12/15 02:49:43;;;;;;;57.40;28.00;;;;;;;4.55;81.46;101218.73;126745;1313;108731;-76
2021/12/15 02:52:48;;;;;;;58.60;27.60;;;;;;;4.59;81.35;101223.08;126484;1308;108422;-78
2021/12/15 02:55:57;;;;;;;63.80;29.20;;;;;;;4.63;81.42;101227.40;126650;1309;108894;-79
2021/12/15 02:59:05;;;;;;;58.00;27.40;;;;;;;4.65;81.46;101224.29;126810;1309;108758;-79
2021/12/15 03:02:23;;;;;;;60.40;28.00;;;;;;;4.59;81.55;101227.81;126841;1312;108792;-75
2021/12/15 03:05:33;;;;;;;56.50;26.30;;;;;;;4.51;81.79;101230.02;126828;1311;108697;-74
2021/12/15 03:08:56;;;;;;;59.20;27.10;;;;;;;4.48;81.78;101231.48;126896;1309;108943;-74
2021/12/15 03:15:35;;;;;;;60.80;27.80;;;;;;;4.48;81.95;101231.63;126389;1309;108608;-73
2021/12/15 03:18:40;;;;;;;59.00;27.10;;;;;;;4.52;81.81;101234.95;126545;1310;108726;-73
2021/12/15 03:21:46;;;;;;;60.30;26.70;;;;;;;4.52;81.68;101235.80;126384;1309;107667;-72
2021/12/15 03:24:52;;;;;;;58.20;26.70;;;;;;;4.52;81.80;101232.80;126643;1309;108849;-76
2021/12/15 03:35:02;;;;;;;51.60;25.50;;;;;;;4.58;81.90;101242.00;126553;1309;108799;-71
2021/12/15 03:38:08;;;;;;;54.40;26.20;;;;;;;4.55;81.79;101245.88;126736;1309;108842;-74
2021/12/15 03:41:13;;;;;;;52.20;24.60;;;;;;;4.56;81.92;101244.42;126911;1309;108846;-72
2021/12/15 03:44:19;;;;;;;56.30;26.00;;;;;;;4.56;81.74;101240.16;126797;1309;109033;-74
2021/12/15 03:47:29;;;;;;;48.70;24.00;;;;;;;4.59;81.83;101243.67;126720;1309;108997;-75
2021/12/15 03:50:36;;;;;;;47.60;25.30;;;;;;;4.63;81.77;101246.45;126884;1309;108590;-75
2021/12/15 03:53:41;;;;;;;54.80;25.60;;;;;;;4.66;81.84;101246.45;126906;1310;108705;-74
2021/12/15 03:56:49;;;;;;;50.30;24.70;;;;;;;4.68;81.86;101247.02;126903;1309;107562;-74
2021/12/15 03:59:56;;;;;;;50.40;25.80;;;;;;;4.68;81.84;101245.06;126876;1310;108953;-78
2021/12/15 04:03:02;;;;;;;51.30;24.60;;;;;;;4.68;81.91;101247.21;126428;1309;108979;-73
2021/12/15 04:06:11;;;;;;;48.60;24.30;;;;;;;4.68;81.76;101243.86;126474;1309;109179;-75
2021/12/15 04:09:18;;;;;;;48.10;23.90;;;;;;;4.71;81.79;101245.64;126771;1313;107732;-74
2021/12/15 04:12:24;;;;;;;48.60;25.00;;;;;;;4.73;81.87;101241.10;127063;1309;107928;-77
2021/12/15 04:15:42;;;;;;;53.40;25.50;;;;;;;4.79;81.97;101240.26;126910;1312;108796;-78
2021/12/15 04:18:47;;;;;;;48.70;25.90;;;;;;;4.79;81.77;101235.28;126690;1310;108427;-78
2021/12/15 04:21:53;;;;;;;54.30;25.80;;;;;;;4.78;81.86;101234.67;126855;1309;108755;-78
2021/12/15 04:25:00;;;;;;;49.70;25.80;;;;;;;4.77;81.91;101237.91;126795;1313;108659;-78
2021/12/15 04:28:10;;;;;;;57.90;31.20;;;;;;;4.78;82.10;101245.55;126889;1310;108663;-77
2021/12/15 04:31:20;;;;;;;222.10;108.40;;;;;;;4.80;81.96;101251.30;126587;1309;109683;-76
2021/12/15 04:34:25;;;;;;;77.10;42.40;;;;;;;4.81;82.03;101257.94;126367;1309;109243;-77
2021/12/15 04:37:31;;;;;;;60.10;32.10;;;;;;;4.79;82.03;101259.95;126436;1309;108612;-77
2021/12/15 04:40:37;;;;;;;55.80;28.20;;;;;;;4.75;82.04;101268.48;126769;1309;108692;-77
2021/12/15 04:43:42;;;;;;;54.30;27.50;;;;;;;4.72;82.03;101271.47;126609;1309;106701;-77
2021/12/15 04:46:59;;;;;;;69.90;33.10;;;;;;;4.70;82.12;101270.73;126677;1309;108875;-76
2021/12/15 04:50:07;;;;;;;73.30;38.40;;;;;;;4.72;82.25;101273.75;126497;1314;108895;-75
2021/12/15 04:53:13;;;;;;;81.60;42.40;;;;;;;4.73;82.29;101275.48;126682;1310;109123;-77
2021/12/15 04:56:19;;;;;;;73.50;38.90;;;;;;;4.77;82.27;101280.01;126828;1309;108904;-76
2021/12/15 04:59:24;;;;;;;78.20;42.20;;;;;;;4.81;82.13;101278.73;126827;1309;108837;-78
2021/12/15 05:02:30;;;;;;;69.40;37.40;;;;;;;4.79;82.19;101286.05;126816;1309;108857;-77
2021/12/15 05:05:43;;;;;;;95.90;52.80;;;;;;;4.78;82.15;101291.92;126832;1309;108865;-77
2021/12/15 05:08:49;;;;;;;124.30;70.10;;;;;;;4.79;82.35;101288.18;126870;1313;108597;-78
2021/12/15 05:11:54;;;;;;;97.00;48.70;;;;;;;4.83;82.32;101289.52;126862;1313;109671;-77
2021/12/15 05:15:00;;;;;;;108.90;51.20;;;;;;;4.86;82.19;101292.88;126951;1313;108412;-77
2021/12/15 05:18:07;;;;;;;107.70;47.90;;;;;;;4.85;82.40;101288.01;126764;1309;108850;-77
2021/12/15 05:21:13;;;;;;;104.40;50.60;;;;;;;4.84;82.28;101286.67;126971;1309;109128;-77
2021/12/15 05:24:30;;;;;;;170.90;77.00;;;;;;;4.82;82.33;101287.98;126503;1309;109072;-77
2021/12/15 05:27:37;;;;;;;112.50;54.80;;;;;;;4.82;82.26;101290.32;126747;1309;108866;-78
2021/12/15 05:30:42;;;;;;;115.30;58.10;;;;;;;4.80;82.33;101295.90;126409;1309;108588;-77
2021/12/15 05:33:48;;;;;;;271.40;146.70;;;;;;;4.79;82.40;101294.67;126858;1309;108393;-77
2021/12/15 05:36:54;;;;;;;164.20;87.10;;;;;;;4.84;82.37;101291.75;126605;1309;108867;-77
2021/12/15 05:40:00;;;;;;;92.90;44.50;;;;;;;4.87;82.35;101295.26;126624;1309;109041;-77
2021/12/15 05:43:07;;;;;;;104.70;57.90;;;;;;;4.84;82.33;101297.90;126701;1312;108877;-77
2021/12/15 05:46:12;;;;;;;53.70;26.10;;;;;;;4.78;82.60;101303.59;126520;1309;108983;-77
2021/12/15 05:49:18;;;;;;;46.30;23.10;;;;;;;4.68;82.73;101309.27;126769;1309;108922;-79
2021/12/15 05:52:27;;;;;;;45.50;23.10;;;;;;;4.63;82.85;101313.25;126473;1309;108702;-76
2021/12/15 05:55:34;;;;;;;56.70;28.40;;;;;;;4.62;82.93;101312.04;126525;1309;109588;-76
2021/12/15 05:58:41;;;;;;;74.90;40.10;;;;;;;4.69;83.03;101305.86;126591;1309;109235;-77
2021/12/15 06:01:46;;;;;;;83.40;43.90;;;;;;;4.77;82.98;101305.41;126682;1315;109817;-75
2021/12/15 06:04:52;;;;;;;73.10;34.40;;;;;;;4.80;82.66;101313.70;126753;1312;108688;-75
2021/12/15 06:07:58;;;;;;;69.10;33.80;;;;;;;4.83;82.53;101315.98;126879;1310;107481;-74
2021/12/15 06:11:04;;;;;;;51.50;25.60;;;;;;;4.86;82.52;101322.48;126868;1312;109027;-75
2021/12/15 06:14:10;;;;;;;51.00;25.50;;;;;;;4.89;82.39;101329.00;126636;1312;108814;-75
2021/12/15 06:17:16;;;;;;;47.10;22.80;;;;;;;4.94;82.56;101325.05;126465;1310;108771;-74
2021/12/15 06:20:22;;;;;;;43.50;22.00;;;;;;;4.97;82.28;101324.48;126668;1312;108924;-74
2021/12/15 06:23:28;;;;;;;42.80;22.00;;;;;;;4.96;82.23;101331.64;126469;1309;108827;-75
2021/12/15 06:26:34;;;;;;;40.40;20.10;;;;;;;4.94;82.20;101323.27;126832;1315;108470;-74
2021/12/15 06:29:39;;;;;;;34.80;17.60;;;;;;;4.94;82.07;101329.42;126571;1313;107707;-75
2021/12/15 06:32:45;;;;;;;33.80;16.70;;;;;;;4.93;81.89;101331.62;126384;1311;107635;-74
2021/12/15 06:35:53;;;;;;;32.70;16.50;;;;;;;4.94;82.02;101335.63;126633;1309;108863;-74
2021/12/15 06:38:59;;;;;;;33.80;17.70;;;;;;;4.95;81.84;101335.86;126766;1312;109568;-72
2021/12/15 06:42:06;;;;;;;33.90;17.20;;;;;;;4.95;81.82;101339.41;126373;1309;108775;-74
2021/12/15 06:45:17;;;;;;;35.80;17.20;;;;;;;4.97;81.80;101344.27;126627;1309;108909;-74
2021/12/15 06:58:34;;;;;;;29.30;14.40;;;;;;;4.92;81.64;101364.63;126890;1309;108815;-74
2021/12/15 07:01:39;;;;;;;30.10;14.70;;;;;;;4.93;81.48;101376.73;126798;1309;108773;-75
2021/12/15 07:04:45;;;;;;;30.80;15.10;;;;;;;4.95;81.43;101382.61;127012;1310;109094;-75
2021/12/15 07:07:52;;;;;;;41.50;19.70;;;;;;;4.98;81.34;101387.39;126977;1307;109759;-75
2021/12/15 07:11:00;;;;;;;44.70;22.20;;;;;;;4.99;81.46;101381.14;127048;1309;107238;-73
2021/12/15 07:14:06;;;;;;;36.10;18.50;;;;;;;4.99;81.42;101380.26;127011;1309;109064;-74
2021/12/15 07:17:19;;;;;;;32.80;17.00;;;;;;;4.98;81.27;101386.13;127027;1309;108907;-74
2021/12/15 07:20:37;;;;;;;46.00;25.50;;;;;;;4.96;81.32;101388.71;126979;1309;107420;-75
2021/12/15 07:23:43;;;;;;;43.00;21.20;;;;;;;4.95;81.27;101393.92;126491;1309;109089;-72
2021/12/15 07:26:49;;;;;;;53.50;27.10;;;;;;;4.92;81.33;101394.24;126539;1309;108814;-74
2021/12/15 07:29:55;;;;;;;48.80;24.40;;;;;;;4.95;81.47;101394.42;126911;1309;107632;-75
2021/12/15 07:33:00;;;;;;;46.90;23.20;;;;;;;4.99;81.20;101389.96;126934;1309;108930;-74
2021/12/15 07:36:07;;;;;;;48.90;24.20;;;;;;;5.04;81.35;101397.95;126983;1309;108926;-74
2021/12/15 07:39:14;;;;;;;49.40;25.10;;;;;;;5.09;81.43;101393.79;126913;1309;108919;-74
2021/12/15 07:42:29;;;;;;;54.20;27.20;;;;;;;5.12;81.33;101394.86;126949;1309;108598;-75
2021/12/15 07:45:39;;;;;;;62.90;30.50;;;;;;;5.15;81.37;101401.58;126927;1309;108833;-75
2021/12/15 07:48:44;;;;;;;164.10;64.30;;;;;;;5.15;81.28;101404.60;126935;1309;108747;-73
2021/12/15 07:51:59;;;;;;;70.70;31.90;;;;;;;5.14;81.39;101401.64;126813;1310;107954;-73
2021/12/15 07:55:05;;;;;;;55.30;26.80;;;;;;;5.15;81.30;101397.68;126804;1310;108889;-73
2021/12/15 07:58:12;;;;;;;52.30;25.70;;;;;;;5.22;81.36;101403.08;126962;1310;108670;-73
2021/12/15 08:01:19;;;;;;;53.30;27.00;;;;;;;5.29;81.33;101400.73;126979;1309;108806;-74
2021/12/15 08:04:25;;;;;;;74.10;37.20;;;;;;;5.37;81.33;101405.17;126939;1309;108821;-74
2021/12/15 08:07:30;;;;;;;127.90;68.80;;;;;;;5.41;81.16;101405.16;126570;1312;108913;-73
2021/12/15 08:10:36;;;;;;;340.50;208.50;;;;;;;5.41;81.10;101406.89;126613;1309;108791;-74
2021/12/15 08:13:42;;;;;;;117.50;59.10;;;;;;;5.42;81.35;101410.20;126490;1309;109017;-73
2021/12/15 08:16:47;;;;;;;273.60;125.70;;;;;;;5.45;81.21;101415.65;126702;1309;108708;-74
2021/12/15 08:19:53;;;;;;;147.50;64.60;;;;;;;5.49;81.21;101425.65;126721;1310;108805;-74
2021/12/15 08:22:58;;;;;;;364.80;155.10;;;;;;;5.51;81.13;101430.83;126695;1309;108917;-74
2021/12/15 08:26:06;;;;;;;134.90;57.30;;;;;;;5.54;81.27;101421.30;126490;1309;109256;-73
2021/12/15 08:29:12;;;;;;;206.30;100.20;;;;;;;5.61;81.24;101426.88;126507;1309;109064;-73
2021/12/15 08:32:17;;;;;;;96.50;46.50;;;;;;;5.67;81.14;101425.45;126516;1309;108801;-75
2021/12/15 08:35:27;;;;;;;72.20;34.10;;;;;;;5.70;81.11;101429.69;126677;1309;107728;-74
2021/12/15 08:38:36;;;;;;;59.50;27.80;;;;;;;5.71;81.13;101437.05;126572;1309;108907;-74
2021/12/15 08:41:42;;;;;;;55.60;26.20;;;;;;;5.74;81.17;101443.41;126771;1309;108946;-75
2021/12/15 08:44:49;;;;;;;50.60;24.90;;;;;;;5.81;81.06;101438.23;126609;1309;109002;-74
2021/12/15 08:47:56;;;;;;;56.50;26.80;;;;;;;5.89;81.28;101439.69;126797;1309;108982;-74
2021/12/15 08:51:01;;;;;;;54.90;27.30;;;;;;;5.98;81.09;101442.33;126756;1309;108799;-73
2021/12/15 08:54:14;;;;;;;57.80;27.10;;;;;;;6.07;81.05;101436.15;126624;1309;108584;-74
2021/12/15 08:57:19;;;;;;;53.10;27.30;;;;;;;6.15;81.25;101424.52;126463;1309;108064;-73
2021/12/15 09:00:26;;;;;;;51.60;25.20;;;;;;;6.20;81.04;101414.64;126515;1309;108975;-73
2021/12/15 09:03:33;;;;;;;51.00;24.10;;;;;;;6.27;81.27;101415.45;126871;1309;108834;-74
2021/12/15 09:06:39;;;;;;;49.00;22.90;;;;;;;6.35;81.19;101410.74;126507;1307;108638;-74
2021/12/15 09:09:44;;;;;;;52.00;24.30;;;;;;;6.45;80.96;101401.23;126968;1310;108989;-76
2021/12/15 09:12:51;;;;;;;46.00;23.60;;;;;;;6.55;80.91;101401.35;126965;1309;108978;-74
2021/12/15 09:15:57;;;;;;;46.80;23.60;;;;;;;6.63;80.83;101405.58;126850;1309;108854;-71
2021/12/15 09:19:03;;;;;;;45.10;23.50;;;;;;;6.67;80.90;101401.77;126898;1310;108657;-74
2021/12/15 09:22:09;;;;;;;45.90;24.30;;;;;;;6.69;80.58;101396.65;126962;1307;108761;-73
2021/12/15 09:25:16;;;;;;;43.00;22.50;;;;;;;6.69;80.63;101400.58;126949;1309;108876;-73
2021/12/15 09:28:24;;;;;;;38.80;20.20;;;;;;;6.67;80.64;101396.61;126536;1310;108873;-72
2021/12/15 09:31:30;;;;;;;39.90;19.60;;;;;;;6.65;80.68;101392.19;126955;1309;107747;-74
2021/12/15 09:34:38;;;;;;;40.40;21.00;;;;;;;6.66;80.71;101391.56;127007;1311;110205;-74
2021/12/15 09:37:45;;;;;;;42.60;22.30;;;;;;;6.70;80.98;101386.17;126986;1309;108411;-74
2021/12/15 09:40:53;;;;;;;43.00;21.60;;;;;;;6.73;80.48;101384.05;127009;1307;109182;-75
2021/12/15 09:44:05;;;;;;;42.00;22.50;;;;;;;6.76;80.98;101382.32;126671;1310;108799;-74
2021/12/15 09:47:38;;;;;;;45.30;23.50;;;;;;;6.74;80.58;101387.54;126912;1309;107432;-74
2021/12/15 09:57:47;;;;;;;43.30;22.80;;;;;;;6.72;80.67;101371.77;126849;1310;108834;-74
2021/12/15 10:04:26;;;;;;;46.10;24.50;;;;;;;6.84;80.74;101378.02;126475;1310;108763;-72
2021/12/15 10:17:54;;;;;;;47.00;25.20;;;;;;;6.98;80.39;101368.95;126505;1309;108845;-75
2021/12/15 10:21:00;;;;;;;48.90;23.70;;;;;;;6.94;80.22;101368.39;126579;1313;108643;-74
2021/12/15 10:24:10;;;;;;;49.00;23.30;;;;;;;6.91;80.39;101365.74;126873;1309;108814;-73
2021/12/15 10:27:19;;;;;;;56.40;26.20;;;;;;;6.89;80.39;101363.89;126896;1309;108754;-73
2021/12/15 10:30:28;;;;;;;57.90;26.90;;;;;;;6.93;80.30;101360.48;126518;1309;108556;-72
2021/12/15 10:33:36;;;;;;;52.00;26.00;;;;;;;6.94;80.40;101351.89;126953;1310;108969;-74
2021/12/15 10:36:48;;;;;;;50.60;26.40;;;;;;;6.97;80.13;101350.48;126968;1309;108936;-74
2021/12/15 10:40:20;;;;;;;54.30;26.70;;;;;;;6.99;80.33;101348.52;126983;1309;108976;-73
2021/12/15 10:43:34;;;;;;;51.90;26.10;;;;;;;7.02;80.20;101346.07;126955;1309;108935;-75
2021/12/15 10:46:42;;;;;;;52.10;25.40;;;;;;;7.01;80.25;101340.27;126686;1309;107796;-74
2021/12/15 10:49:53;;;;;;;51.50;24.60;;;;;;;7.00;80.31;101329.17;126895;1308;108757;-73
2021/12/15 10:53:01;;;;;;;52.90;27.20;;;;;;;7.02;80.19;101327.27;126918;1309;107789;-74
2021/12/15 10:56:15;;;;;;;63.50;33.30;;;;;;;7.09;80.40;101330.20;126825;1309;107121;-73
2021/12/15 10:59:23;;;;;;;81.50;40.70;;;;;;;7.12;80.06;101328.07;126963;1310;108827;-74
2021/12/15 11:02:34;;;;;;;64.00;33.00;;;;;;;7.12;80.19;101327.55;126991;1309;109135;-73
2021/12/15 11:05:39;;;;;;;136.00;61.60;;;;;;;7.12;79.90;101325.42;126969;1309;108886;-74
2021/12/15 11:08:44;;;;;;;122.50;59.10;;;;;;;7.06;79.89;101320.09;126884;1309;108860;-75
2021/12/15 11:12:02;;;;;;;189.10;86.60;;;;;;;6.98;79.71;101324.21;126973;1309;108795;-74
2021/12/15 11:15:12;;;;;;;110.30;50.50;;;;;;;6.90;79.85;101318.24;126706;1309;108930;-74
2021/12/15 11:18:21;;;;;;;57.20;31.70;;;;;;;6.83;79.91;101317.95;126482;1310;108793;-74
2021/12/15 11:21:32;;;;;;;53.10;27.40;;;;;;;6.80;79.87;101323.48;126464;1308;108767;-75
2021/12/15 11:24:38;;;;;;;124.50;69.30;;;;;;;6.81;79.79;101325.16;126499;1309;108724;-73
2021/12/15 11:27:43;;;;;;;60.70;31.70;;;;;;;6.84;79.83;101326.40;126487;1309;108871;-72
2021/12/15 11:30:55;;;;;;;65.20;36.50;;;;;;;6.85;80.01;101326.47;126459;1309;108887;-73
2021/12/15 11:34:05;;;;;;;60.60;32.80;;;;;;;6.86;79.93;101324.69;126471;1309;108789;-73
2021/12/15 11:37:10;;;;;;;53.70;29.70;;;;;;;6.87;79.86;101332.04;126510;1310;108906;-72
2021/12/15 11:40:17;;;;;;;44.10;24.20;;;;;;;6.87;79.80;101334.48;126475;1309;108818;-73
2021/12/15 11:43:36;;;;;;;42.80;22.80;;;;;;;6.92;79.79;101328.31;126463;1315;107791;-73
2021/12/15 11:46:43;;;;;;;48.70;27.60;;;;;;;7.03;80.14;101326.00;126472;1309;108739;-73
2021/12/15 11:49:49;;;;;;;53.70;30.70;;;;;;;7.15;79.93;101330.17;126647;1307;108758;-74
2021/12/15 11:52:54;;;;;;;49.40;27.00;;;;;;;7.25;79.94;101331.08;126641;1309;108919;-73
2021/12/15 11:56:21;;;;;;;48.40;26.70;;;;;;;7.33;79.69;101334.79;126918;1309;108688;-74
2021/12/15 11:59:30;;;;;;;45.30;25.60;;;;;;;7.33;79.72;101331.40;126672;1309;108792;-71
2021/12/15 12:02:38;;;;;;;44.70;25.80;;;;;;;7.31;79.87;101326.57;126653;1310;109508;-74
2021/12/15 12:05:43;;;;;;;45.40;25.60;;;;;;;7.29;79.47;101333.11;126978;1308;108689;-75
2021/12/15 12:08:53;;;;;;;42.50;23.90;;;;;;;7.24;79.62;101327.08;126638;1310;108760;-73
2021/12/15 12:12:00;;;;;;;39.00;21.90;;;;;;;7.21;79.63;101333.96;126445;1307;109130;-74
2021/12/15 12:15:09;;;;;;;44.80;23.20;;;;;;;7.20;79.73;101330.30;126536;1309;108887;-73
2021/12/15 12:18:17;;;;;;;45.90;24.80;;;;;;;7.22;79.69;101325.64;126594;1309;109187;-74
2021/12/15 12:21:23;;;;;;;47.80;27.10;;;;;;;7.23;79.54;101327.65;126814;1310;108513;-75
2021/12/15 12:24:33;;;;;;;44.70;24.80;;;;;;;7.23;79.61;101326.06;126726;1308;109007;-73
2021/12/15 12:27:40;;;;;;;46.70;25.00;;;;;;;7.22;79.60;101325.78;126571;1307;109623;-74
2021/12/15 12:30:48;;;;;;;45.00;25.20;;;;;;;7.19;79.25;101330.23;126852;1310;108859;-75
2021/12/15 12:33:54;;;;;;;48.70;26.90;;;;;;;7.13;79.72;101332.10;126779;1309;109515;-72
2021/12/15 12:37:00;;;;;;;47.90;24.50;;;;;;;7.04;79.64;101335.64;126784;1309;108333;-74
2021/12/15 12:40:19;;;;;;;46.10;23.50;;;;;;;6.98;79.53;101335.20;126851;1310;108691;-74
2021/12/15 12:43:31;;;;;;;51.90;26.80;;;;;;;6.94;79.49;101336.91;126901;1309;108994;-73
2021/12/15 12:46:43;;;;;;;47.10;25.70;;;;;;;6.93;79.67;101332.56;126806;1310;108866;-73
2021/12/15 12:50:06;;;;;;;48.70;25.80;;;;;;;6.93;79.56;101332.14;126713;1309;108817;-74
2021/12/15 12:59:58;;;;;;;52.10;27.20;;;;;;;6.80;79.43;101337.46;126750;1309;108879;-73
2021/12/15 13:03:07;;;;;;;48.90;24.20;;;;;;;6.75;79.45;101332.13;126814;1310;108793;-74
2021/12/15 13:06:15;;;;;;;51.10;25.00;;;;;;;6.70;79.60;101333.70;126920;1309;108724;-74
2021/12/15 13:09:21;;;;;;;49.90;25.50;;;;;;;6.68;79.34;101337.48;126973;1309;107432;-74
2021/12/15 13:12:30;;;;;;;52.00;27.10;;;;;;;6.69;79.60;101339.58;126944;1310;108729;-74
2021/12/15 13:15:36;;;;;;;49.30;27.10;;;;;;;6.71;79.69;101338.77;127009;1312;107623;-74
2021/12/15 13:18:49;;;;;;;51.60;27.10;;;;;;;6.72;79.59;101341.69;126787;1309;108918;-73
2021/12/15 13:22:14;;;;;;;53.30;28.50;;;;;;;6.70;79.57;101346.42;126675;1309;108680;-74
2021/12/15 13:29:14;;;;;;;49.90;25.40;;;;;;;6.61;79.68;101345.96;126652;1310;107942;-74
2021/12/15 13:32:27;;;;;;;48.70;24.80;;;;;;;6.57;79.40;101349.02;126783;1310;108692;-73
2021/12/15 13:35:40;;;;;;;51.00;27.10;;;;;;;6.55;79.44;101350.02;126914;1312;108582;-74
2021/12/15 13:38:48;;;;;;;53.80;28.10;;;;;;;6.58;79.53;101352.69;126950;1309;108496;-75
2021/12/15 13:42:00;;;;;;;49.90;27.40;;;;;;;6.58;79.62;101352.86;126759;1309;109075;-73
2021/12/15 13:45:05;;;;;;;;;;;;;;;6.59;79.64;101354.40;126528;1313;108761;-73
2021/12/15 13:48:10;;;;;;;49.30;26.40;;;;;;;6.58;79.52;101350.05;126534;1308;108913;-72
2021/12/15 13:51:16;;;;;;;49.60;27.10;;;;;;;6.56;79.31;101351.21;126844;1309;108467;-74
2021/12/15 13:54:53;;;;;;;46.80;23.10;;;;;;;6.53;79.60;101353.39;126963;1309;108848;-74
2021/12/15 13:58:16;;;;;;;46.60;24.10;;;;;;;6.49;79.61;101360.34;126958;1309;108577;-73
2021/12/15 14:01:22;;;;;;;44.20;23.30;;;;;;;6.47;79.62;101358.14;126788;1309;108761;-73
2021/12/15 14:04:47;;;;;;;48.30;25.20;;;;;;;6.48;79.57;101359.36;126627;1310;108925;-74
2021/12/15 14:07:58;;;;;;;46.30;25.80;;;;;;;6.50;79.78;101359.05;126655;1309;108696;-72
2021/12/15 14:11:09;;;;;;;46.30;25.30;;;;;;;6.53;79.65;101363.84;126680;1309;108480;-74
2021/12/15 14:14:24;;;;;;;45.30;24.90;;;;;;;6.53;79.41;101364.34;127029;1309;108730;-72
2021/12/15 14:17:30;;;;;;;49.50;25.80;;;;;;;6.50;79.58;101363.08;126876;1309;108668;-74
2021/12/15 14:20:38;;;;;;;47.90;24.50;;;;;;;6.46;79.84;101364.45;126646;1314;108928;-74
2021/12/15 14:23:46;;;;;;;47.20;23.00;;;;;;;6.44;79.62;101367.74;126704;1309;108381;-74
2021/12/15 14:26:52;;;;;;;49.50;25.00;;;;;;;6.44;79.74;101364.88;126777;1309;108675;-73
2021/12/15 14:29:57;;;;;;;52.70;26.40;;;;;;;6.45;79.84;101362.69;126683;1309;108902;-74
2021/12/15 14:33:03;;;;;;;53.40;26.10;;;;;;;6.47;79.76;101365.77;126502;1309;108722;-72
2021/12/15 14:36:13;;;;;;;48.00;24.70;;;;;;;6.48;79.84;101366.78;126607;1309;109237;-74
2021/12/15 14:39:21;;;;;;;47.40;25.40;;;;;;;6.46;79.89;101362.79;126951;1309;109112;-74
2021/12/15 14:42:29;;;;;;;43.70;21.60;;;;;;;6.47;80.00;101355.00;126931;1308;108957;-74
2021/12/15 14:45:34;;;;;;;42.00;20.90;;;;;;;6.45;80.08;101358.11;127042;1309;108769;-74
2021/12/15 14:48:40;;;;;;;45.50;23.20;;;;;;;6.45;79.94;101363.93;127060;1309;108782;-74
2021/12/15 14:51:47;;;;;;;46.40;24.00;;;;;;;6.49;80.10;101362.25;126707;1313;108822;-72
2021/12/15 14:55:01;;;;;;;58.10;31.70;;;;;;;6.54;80.11;101361.42;126998;1309;108871;-75
2021/12/15 14:58:07;;;;;;;49.20;27.20;;;;;;;6.56;80.09;101359.73;126842;1314;109025;-75
2021/12/15 15:01:16;;;;;;;47.80;26.80;;;;;;;6.57;79.98;101358.77;127271;1309;108736;-75
2021/12/15 15:04:25;;;;;;;42.80;22.70;;;;;;;6.54;80.23;101356.80;127042;1310;109225;-74
2021/12/15 15:07:35;;;;;;;45.70;23.40;;;;;;;6.52;79.97;101356.04;126772;1309;108728;-74